Record high temperature 100.8°F Record low temperature -75.5°F Record high gust 121.0 mph Record high average 61.8 mph Record daily rain 2.61 in. Record low windchill -106.6°F Record high barometer 31.889 in. Record low barometer 23.642 in.
Daily high pressure 30.130 in. Daily low pressure 30.044 in. Daily low windchill 54.4°F Daily high heat index 85.7°F Daily high gust speed 14.7 mph ESE Daily high average speed 10.4 mph SE
Weather Data
LAST READING AT TIME: 17:50 PM DATE: September 18 2014, time of next update: 06:00 pm
Current WeatherDry Current Temperature 81.5°F (27.5°C) (Heat Index 79.8°F ), Apparent temp 79.0°F
Maximum Temperature (since midnight)89.0°F at: 2:50 PM Minimum Temperature (since midnight)54.4°F at: 7:18 AM
Average windspeed (ten minute)3.1 mph Wind Direction (ten minute)SE (139°)
Heat Index 79.8°F Maximum Gust (last hour)14.7 mph at: 5:26 PM
Maximum Gust (since midnight)14.7 mph at: 11:58 AM Maximum 1 minute average (since midnight)10.4 mph at: 4:46 PM
Rainfall (last hour)0.00 in. (0.0 mm) Rainfall (since midnight)0.00 in. (0.0 mm) ---
Rainfall This month 0.16 in. (4.1 mm) Rainfall To date this year 6.83 in. (173.6 mm)
Maximum rain per minute (last hour)0.00 in/min Maximum rain per hour (last 6 hours)0.00 in/hour
Yesterdays rainfall 0.00 in DewPoint 41.2°F (Wet Bulb :60.6°F )
Humidity 24 %, Humidex 80.3°F Barometer corrected to msl30.050 in. (1017.6 hPa)
Pressure change 0.00 in. (last hour) Trend (last hour)STEADY
Pressure change (last 12 hours)-0.06 in Pressure change (last 6 hours)-0.06 in

This page is updated from recent data collected by a DAVIS WMII weather station Use the Reload or Refresh facility on your browser to retrieve the latest data.


Click here for the last 24 hour graph
Click here for the last 48 hour graph
Click here for the last 72 hour graph
Click here for the month to date graph


Weather report/warning/Metars

COLORADO SPRINGS MUNI, CO, United States (KCOS) 38-49N 104-43W 1856M
Sep 18, 2014 - 06:54 PM EDT / 2014.09.18 2254 UTC
Wind: from the SSE (160 degrees) at 14 MPH (12 KT) gusting to 22 MPH (19 KT):0
Visibility: 10 mile(s):0
Sky conditions: mostly clear
Temperature: 84.0 F (28.9 C)
Dew Point: 30.0 F (-1.1 C)
Relative Humidity: 14%
Pressure (altimeter): 30.05 in. Hg (1017 hPa)
ob: KCOS 182254Z 16012G19KT 10SM FEW120 29/M01 A3005 RMK AO2 WSHFT 2150 SLP086 T02891011
cycle: 23
Air Force Academy, CO, United States (KAFF) 38-58N 104-49W 1999M
Sep 18, 2014 - 06:58 PM EDT / 2014.09.18 2258 UTC
Wind: from the S (170 degrees) at 17 MPH (15 KT) gusting to 26 MPH (23 KT):0
Visibility: 10 mile(s):0
Sky conditions: clear
Temperature: 81.0 F (27.2 C)
Dew Point: 31.6 F (-0.2 C)
Relative Humidity: 16%
Pressure (altimeter): 30.06 in. Hg (1017 hPa)
ob: KAFF 182258Z AUTO 17015G23KT 10SM CLR 27/00 A3006 RMK AO2 SLP092 T02721002
cycle: 23
Fort Carson, CO, United States (KFCS) 38-42N 104-46W 1789M
Sep 18, 2014 - 06:58 PM EDT / 2014.09.18 2258 UTC
Wind: from the SSE (150 degrees) at 16 MPH (14 KT):0
Visibility: 10 mile(s):0
Sky conditions: clear
Temperature: 84.0 F (28.9 C)
Dew Point: 33.8 F (1.0 C)
Relative Humidity: 16%
Pressure (altimeter): 30.02 in. Hg (1016 hPa)
ob: KFCS 182258Z AUTO 15014KT 10SM CLR 29/01 A3002 RMK AO2 SLP104 T02890010 
cycle: 23



The data is logged at two minute intervals, but there is data recorded every minute. Best viewed in 800 x 600 and True colour.

Use the RELOAD facility on your browser to retrieve the latest data.

Click here for a daily update of the averages/extremes to date for the month
Created by "Weather Display" software version 10.37R Build 78 at this start time/date 03:32 am 9/11/2014